Time;durP1;ratioP1;P1;durP2;ratioP2;P2;SDS_P1;SDS_P2;PMS_P1;PMS_P2;Temp;Humidity;BMP_temperature;BMP_pressure;BME280_temperature;BME280_humidity;BME280_pressure;Samples;Min_cycle;Max_cycle;Signal;HPM_P1;HPM_P2
2022/05/03 00:02:15;;;;;;;16.40;7.05;;;;;;;;;;4999866;28;20052;-64
2022/05/03 00:04:42;;;;;;;11.43;7.50;;;;;;;;;;4996781;28;20559;-65
2022/05/03 00:07:17;;;;;;;11.38;8.82;;;;;;;;;;5000868;28;20465;-64
2022/05/03 00:09:58;;;;;;;15.63;10.40;;;;;;;;;;5015972;28;20073;-64
2022/05/03 00:12:28;;;;;;;14.00;8.57;;;;;;;;;;5012327;28;21864;-65
2022/05/03 00:14:56;;;;;;;6.40;4.25;;;;;;;;;;5014530;28;20091;-64
2022/05/03 00:17:23;;;;;;;13.18;3.20;;;;;;;;;;5013582;28;20048;-64
2022/05/03 00:19:49;;;;;;;68.22;4.75;;;;;;;;;;5014477;28;20049;-64
2022/05/03 00:22:15;;;;;;;175.25;6.57;;;;;;;;;;5011854;28;20460;-65
2022/05/03 00:24:42;;;;;;;41.22;3.83;;;;;;;;;;5014155;28;20439;-65
2022/05/03 00:27:08;;;;;;;133.50;7.32;;;;;;;;;;5004399;28;20055;-65
2022/05/03 00:29:35;;;;;;;6.97;3.78;;;;;;;;;;5001367;28;20060;-65
2022/05/03 00:32:03;;;;;;;6.95;3.85;;;;;;;;;;5017754;28;20110;-65
2022/05/03 00:34:32;;;;;;;4.40;3.13;;;;;;;;;;5004299;28;20060;-65
2022/05/03 00:36:58;;;;;;;4.40;3.35;;;;;;;;;;5017152;28;21743;-65
2022/05/03 00:39:24;;;;;;;6.63;3.78;;;;;;;;;;5015993;28;20033;-65
2022/05/03 00:41:57;;;;;;;23.55;4.93;;;;;;;;;;5010759;28;20137;-64
2022/05/03 00:47:26;;;;;;;67.65;6.32;;;;;;;;;;5013430;28;20049;-64
2022/05/03 00:49:59;;;;;;;119.15;6.85;;;;;;;;;;5013149;28;20042;-65
2022/05/03 00:52:29;;;;;;;89.85;6.13;;;;;;;;;;5003545;28;20072;-65
2022/05/03 00:54:55;;;;;;;116.97;5.50;;;;;;;;;;4999511;28;20383;-65
2022/05/03 00:57:39;;;;;;;48.20;4.18;;;;;;;;;;5007871;28;20125;-64
2022/05/03 01:00:06;;;;;;;5.72;2.60;;;;;;;;;;5008066;28;20460;-64
2022/05/03 01:02:44;;;;;;;7.93;4.53;;;;;;;;;;4999876;28;20057;-65
2022/05/03 01:05:11;;;;;;;13.40;3.33;;;;;;;;;;4991322;28;20103;-65
2022/05/03 01:07:43;;;;;;;8.65;3.60;;;;;;;;;;4993316;28;20100;-65
2022/05/03 01:10:10;;;;;;;10.90;5.15;;;;;;;;;;5011267;28;20053;-64
2022/05/03 01:12:39;;;;;;;23.15;8.10;;;;;;;;;;4994533;28;20049;-64
2022/05/03 01:15:10;;;;;;;23.25;9.18;;;;;;;;;;5009925;28;20058;-65
2022/05/03 01:17:45;;;;;;;24.15;10.10;;;;;;;;;;4993224;28;20149;-65
2022/05/03 01:20:15;;;;;;;24.08;11.90;;;;;;;;;;4991412;28;20412;-65
2022/05/03 01:22:45;;;;;;;24.80;11.50;;;;;;;;;;5010550;28;20049;-65
2022/05/03 01:25:11;;;;;;;21.98;12.40;;;;;;;;;;5011378;28;20049;-65
2022/05/03 01:27:43;;;;;;;25.40;14.73;;;;;;;;;;5012971;28;20056;-64
2022/05/03 01:30:11;;;;;;;45.78;22.38;;;;;;;;;;4995820;28;20169;-65
2022/05/03 01:32:39;;;;;;;49.88;22.15;;;;;;;;;;5013423;28;20103;-65
2022/05/03 01:35:06;;;;;;;64.72;27.48;;;;;;;;;;5011171;28;20056;-65
2022/05/03 01:37:48;;;;;;;27.95;12.45;;;;;;;;;;5008444;28;20038;-65
2022/05/03 01:40:15;;;;;;;24.90;10.88;;;;;;;;;;5009565;28;21064;-65
2022/05/03 01:42:42;;;;;;;21.02;8.65;;;;;;;;;;5011233;28;20060;-65
2022/05/03 01:45:09;;;;;;;14.00;6.75;;;;;;;;;;5001706;28;20049;-65
2022/05/03 01:47:45;;;;;;;7.40;4.35;;;;;;;;;;4999998;28;20046;-65
2022/05/03 01:50:26;;;;;;;5.82;3.35;;;;;;;;;;5012620;28;20046;-65
2022/05/03 01:52:55;;;;;;;3.75;2.38;;;;;;;;;;5011125;28;20144;-65
2022/05/03 01:55:37;;;;;;;4.85;3.30;;;;;;;;;;4996604;28;20131;-65
2022/05/03 01:58:12;;;;;;;5.68;4.03;;;;;;;;;;4994630;28;20096;-65
2022/05/03 02:00:39;;;;;;;6.47;4.95;;;;;;;;;;5011848;28;20049;-65
2022/05/03 02:03:27;;;;;;;6.55;4.70;;;;;;;;;;5013260;28;20725;-65
2022/05/03 02:05:54;;;;;;;7.75;5.57;;;;;;;;;;5015852;28;20092;-65
2022/05/03 02:08:21;;;;;;;7.90;6.30;;;;;;;;;;5022554;28;20042;-65
2022/05/03 02:10:48;;;;;;;6.82;5.50;;;;;;;;;;4996419;28;20053;-65
2022/05/03 02:13:23;;;;;;;10.80;7.10;;;;;;;;;;5000720;28;20096;-64
2022/05/03 02:15:50;;;;;;;19.20;11.57;;;;;;;;;;4989724;28;20477;-65
2022/05/03 02:18:31;;;;;;;24.13;15.30;;;;;;;;;;5004162;28;20049;-65
2022/05/03 02:20:57;;;;;;;18.92;14.40;;;;;;;;;;5014223;28;20448;-65
2022/05/03 02:23:33;;;;;;;14.95;11.82;;;;;;;;;;5015138;28;20034;-65
2022/05/03 02:26:06;;;;;;;14.88;12.38;;;;;;;;;;5000428;28;20053;-65
2022/05/03 02:28:39;;;;;;;15.40;12.95;;;;;;;;;;5014822;28;20077;-65
2022/05/03 02:31:08;;;;;;;17.40;13.55;;;;;;;;;;5003326;28;20057;-65
2022/05/03 02:33:38;;;;;;;19.30;16.17;;;;;;;;;;5001194;28;20077;-65
2022/05/03 02:36:07;;;;;;;19.08;16.15;;;;;;;;;;5013201;28;20490;-65
2022/05/03 02:38:37;;;;;;;17.48;14.60;;;;;;;;;;5013020;28;20041;-65
2022/05/03 02:41:04;;;;;;;17.63;14.50;;;;;;;;;;5014976;28;20485;-64
2022/05/03 02:43:31;;;;;;;19.35;16.20;;;;;;;;;;4999723;28;20057;-65
2022/05/03 02:46:03;;;;;;;19.30;16.65;;;;;;;;;;5018843;28;20350;-65
2022/05/03 02:48:34;;;;;;;22.70;16.85;;;;;;;;;;5018867;28;20057;-65
2022/05/03 02:51:04;;;;;;;21.10;16.88;;;;;;;;;;5015601;28;20111;-65
2022/05/03 02:53:37;;;;;;;19.73;16.70;;;;;;;;;;5001371;28;20052;-65
2022/05/03 02:56:08;;;;;;;19.48;16.25;;;;;;;;;;5005379;28;20302;-65
2022/05/03 02:58:35;;;;;;;20.80;16.65;;;;;;;;;;4999329;28;20081;-65
2022/05/03 03:03:52;;;;;;;20.20;16.65;;;;;;;;;;5017089;28;20053;-65
2022/05/03 03:06:20;;;;;;;20.10;17.35;;;;;;;;;;5014765;28;20096;-65
2022/05/03 03:08:47;;;;;;;21.23;17.50;;;;;;;;;;5013565;28;20052;-65
2022/05/03 03:11:16;;;;;;;22.70;18.02;;;;;;;;;;4999247;28;20050;-64
2022/05/03 03:13:51;;;;;;;18.48;16.38;;;;;;;;;;5013325;28;20112;-64
2022/05/03 03:16:22;;;;;;;21.70;16.83;;;;;;;;;;5014757;28;20046;-65
2022/05/03 03:18:49;;;;;;;20.80;16.58;;;;;;;;;;5013243;28;20100;-64
2022/05/03 03:21:16;;;;;;;20.15;17.77;;;;;;;;;;5012256;28;20045;-65
2022/05/03 03:23:42;;;;;;;20.42;17.33;;;;;;;;;;5014168;28;20113;-65
2022/05/03 03:26:10;;;;;;;26.42;18.02;;;;;;;;;;5013306;28;20486;-65
2022/05/03 03:28:37;;;;;;;20.52;16.90;;;;;;;;;;5013260;28;20113;-65
2022/05/03 03:31:03;;;;;;;20.63;17.15;;;;;;;;;;5001599;28;20057;-65
2022/05/03 03:33:34;;;;;;;24.70;17.17;;;;;;;;;;4997635;28;20053;-65
2022/05/03 03:36:02;;;;;;;26.17;18.15;;;;;;;;;;5014087;28;20053;-65
2022/05/03 03:38:33;;;;;;;21.52;17.85;;;;;;;;;;5016152;28;20042;-65
2022/05/03 03:40:59;;;;;;;21.50;18.63;;;;;;;;;;5013874;28;20084;-64
2022/05/03 03:43:26;;;;;;;22.67;18.40;;;;;;;;;;5000517;28;20053;-65
2022/05/03 03:45:52;;;;;;;18.90;16.67;;;;;;;;;;5004996;28;20384;-65
2022/05/03 03:48:18;;;;;;;24.92;18.02;;;;;;;;;;5014417;28;20103;-65
2022/05/03 03:50:45;;;;;;;23.35;19.08;;;;;;;;;;5016108;28;20038;-64
2022/05/03 03:53:11;;;;;;;24.90;19.02;;;;;;;;;;5013452;28;20053;-64
2022/05/03 03:55:37;;;;;;;22.63;18.38;;;;;;;;;;5015380;28;20041;-65
2022/05/03 03:58:04;;;;;;;24.52;18.73;;;;;;;;;;5015712;28;20124;-65
2022/05/03 04:00:30;;;;;;;21.70;19.15;;;;;;;;;;5015229;28;20393;-65
2022/05/03 04:02:57;;;;;;;23.48;19.42;;;;;;;;;;5012801;28;20441;-65
2022/05/03 04:05:23;;;;;;;21.98;17.40;;;;;;;;;;4997737;28;20100;-65
2022/05/03 04:07:50;;;;;;;22.83;17.25;;;;;;;;;;5001601;28;20052;-65
2022/05/03 04:10:17;;;;;;;20.85;17.70;;;;;;;;;;5005443;28;20045;-64
2022/05/03 04:12:44;;;;;;;22.50;17.85;;;;;;;;;;4994443;28;20046;-65
2022/05/03 04:15:10;;;;;;;24.67;18.67;;;;;;;;;;4999462;28;20167;-65
2022/05/03 04:17:36;;;;;;;24.33;19.33;;;;;;;;;;5012010;28;20041;-65
2022/05/03 04:20:03;;;;;;;23.35;19.75;;;;;;;;;;5012169;28;20038;-65
2022/05/03 04:22:30;;;;;;;24.55;18.77;;;;;;;;;;5013216;28;20062;-65
2022/05/03 04:24:57;;;;;;;24.50;19.55;;;;;;;;;;4993913;28;20153;-64
2022/05/03 04:27:23;;;;;;;25.45;21.08;;;;;;;;;;5012956;28;20073;-64
2022/05/03 04:29:49;;;;;;;24.13;20.45;;;;;;;;;;5010716;28;20410;-65
2022/05/03 04:32:16;;;;;;;27.45;22.35;;;;;;;;;;5009317;28;20053;-65
2022/05/03 04:34:42;;;;;;;27.50;21.45;;;;;;;;;;5010294;28;20062;-65
2022/05/03 04:37:08;;;;;;;24.30;21.70;;;;;;;;;;4999137;28;20540;-65
2022/05/03 04:39:34;;;;;;;29.92;23.08;;;;;;;;;;5012077;28;20037;-65
2022/05/03 04:42:00;;;;;;;30.45;23.95;;;;;;;;;;5013473;28;20346;-64
2022/05/03 04:44:27;;;;;;;27.48;22.17;;;;;;;;;;5000853;28;20034;-64
2022/05/03 04:46:53;;;;;;;27.08;22.67;;;;;;;;;;5015746;28;20676;-65
2022/05/03 04:49:19;;;;;;;27.10;22.73;;;;;;;;;;4997573;28;20083;-64
2022/05/03 04:51:45;;;;;;;32.80;23.80;;;;;;;;;;5015292;28;20099;-65
2022/05/03 04:54:11;;;;;;;29.83;22.63;;;;;;;;;;4997827;28;20132;-65
2022/05/03 04:56:37;;;;;;;28.45;22.73;;;;;;;;;;4992578;28;20121;-65
2022/05/03 04:59:04;;;;;;;29.67;21.88;;;;;;;;;;5011236;28;20059;-64
2022/05/03 05:01:30;;;;;;;29.10;22.17;;;;;;;;;;4993252;28;20038;-65
2022/05/03 05:03:56;;;;;;;30.85;22.42;;;;;;;;;;4998938;28;20038;-65
2022/05/03 05:06:23;;;;;;;29.23;23.25;;;;;;;;;;5015828;28;20136;-65
2022/05/03 05:08:49;;;;;;;30.88;23.58;;;;;;;;;;5006093;28;20072;-65
2022/05/03 05:11:15;;;;;;;29.13;21.92;;;;;;;;;;4996482;28;20129;-65
2022/05/03 05:13:41;;;;;;;31.90;23.70;;;;;;;;;;5002578;28;20428;-65
2022/05/03 05:16:08;;;;;;;37.50;26.40;;;;;;;;;;4998094;28;20073;-65
2022/05/03 05:18:34;;;;;;;36.42;25.70;;;;;;;;;;5013600;28;20068;-65
2022/05/03 05:21:01;;;;;;;46.45;29.13;;;;;;;;;;5014316;28;20497;-65
2022/05/03 05:23:27;;;;;;;53.33;33.10;;;;;;;;;;5001669;28;20149;-65
2022/05/03 05:25:54;;;;;;;63.15;33.97;;;;;;;;;;5014912;28;20041;-65
2022/05/03 05:28:21;;;;;;;57.88;34.97;;;;;;;;;;5012606;28;20091;-65
2022/05/03 05:30:49;;;;;;;61.08;34.13;;;;;;;;;;4999086;28;20053;-65
2022/05/03 05:33:15;;;;;;;62.15;35.85;;;;;;;;;;4999264;28;20041;-64
2022/05/03 05:35:42;;;;;;;63.45;34.33;;;;;;;;;;5013001;28;20061;-65
2022/05/03 05:38:08;;;;;;;62.50;35.35;;;;;;;;;;5014716;28;20042;-65
2022/05/03 05:40:34;;;;;;;56.08;33.47;;;;;;;;;;5011536;28;20133;-65
2022/05/03 05:43:02;;;;;;;56.33;31.27;;;;;;;;;;5008268;28;20041;-65
2022/05/03 05:45:29;;;;;;;43.53;27.20;;;;;;;;;;5013567;28;20583;-65
2022/05/03 05:47:57;;;;;;;39.38;23.95;;;;;;;;;;5013859;28;20065;-65
2022/05/03 05:50:24;;;;;;;28.35;19.48;;;;;;;;;;5012627;28;20053;-65
2022/05/03 05:55:36;;;;;;;27.13;15.18;;;;;;;;;;5004824;28;20149;-65
2022/05/03 05:58:03;;;;;;;27.65;14.02;;;;;;;;;;5012019;28;20486;-64
2022/05/03 06:00:30;;;;;;;27.05;11.70;;;;;;;;;;5007555;28;20056;-65
2022/05/03 06:02:56;;;;;;;34.28;11.88;;;;;;;;;;5017380;28;20034;-65
2022/05/03 06:05:22;;;;;;;40.05;12.00;;;;;;;;;;5017036;28;20038;-64
2022/05/03 06:07:48;;;;;;;35.97;10.23;;;;;;;;;;5016486;28;20489;-64
2022/05/03 06:10:15;;;;;;;28.80;10.35;;;;;;;;;;5017561;28;20065;-64
2022/05/03 06:12:42;;;;;;;27.90;8.95;;;;;;;;;;5017541;28;20374;-69
2022/05/03 06:15:08;;;;;;;35.13;8.90;;;;;;;;;;5014051;28;20553;-65
2022/05/03 06:17:34;;;;;;;25.10;8.75;;;;;;;;;;5012645;28;20183;-65
2022/05/03 06:20:00;;;;;;;25.15;7.72;;;;;;;;;;5011167;28;20033;-65
2022/05/03 06:22:27;;;;;;;25.17;7.03;;;;;;;;;;5012225;28;20125;-65
2022/05/03 06:24:53;;;;;;;20.83;7.13;;;;;;;;;;5011362;28;20050;-64
2022/05/03 06:27:19;;;;;;;23.25;7.68;;;;;;;;;;5002134;28;20203;-64
2022/05/03 06:29:45;;;;;;;27.15;7.40;;;;;;;;;;5004638;28;20073;-64
2022/05/03 06:32:12;;;;;;;26.15;7.80;;;;;;;;;;5008913;28;20057;-65
2022/05/03 06:34:38;;;;;;;35.38;8.63;;;;;;;;;;4998269;28;20050;-65
2022/05/03 06:37:05;;;;;;;28.45;8.65;;;;;;;;;;5015666;28;20057;-65
2022/05/03 06:39:31;;;;;;;33.35;8.65;;;;;;;;;;5019289;28;20441;-64
2022/05/03 06:41:58;;;;;;;35.63;9.50;;;;;;;;;;4996660;28;20379;-64
2022/05/03 06:44:24;;;;;;;25.20;8.45;;;;;;;;;;5018410;28;20512;-66
2022/05/03 06:46:50;;;;;;;30.70;8.35;;;;;;;;;;5005109;28;20428;-66
2022/05/03 06:49:16;;;;;;;30.27;8.95;;;;;;;;;;5013964;28;20057;-65
2022/05/03 06:51:42;;;;;;;24.95;9.13;;;;;;;;;;5016159;28;20030;-64
2022/05/03 06:54:08;;;;;;;32.20;9.13;;;;;;;;;;5018481;28;20161;-67
2022/05/03 06:56:36;;;;;;;31.65;8.43;;;;;;;;;;5003140;28;20046;-67
2022/05/03 06:59:03;;;;;;;17.90;7.30;;;;;;;;;;5017915;28;20046;-67
2022/05/03 07:01:29;;;;;;;30.25;8.93;;;;;;;;;;5002098;28;20041;-65
2022/05/03 07:03:55;;;;;;;28.77;7.57;;;;;;;;;;5018470;28;20046;-67
2022/05/03 07:06:22;;;;;;;22.08;7.93;;;;;;;;;;5021130;28;20076;-68
2022/05/03 07:08:48;;;;;;;29.00;8.05;;;;;;;;;;5005010;28;20183;-64
2022/05/03 07:11:15;;;;;;;27.20;7.78;;;;;;;;;;5019171;28;20120;-64
2022/05/03 07:13:41;;;;;;;24.42;6.35;;;;;;;;;;5019794;28;20064;-64
2022/05/03 07:16:07;;;;;;;26.23;6.70;;;;;;;;;;5016915;28;20406;-64
2022/05/03 07:24:03;;;;;;;24.17;6.60;;;;;;;;;;5004270;28;20070;-68
2022/05/03 07:26:30;;;;;;;26.58;5.32;;;;;;;;;;5001248;28;20168;-68
2022/05/03 07:28:56;;;;;;;22.77;4.70;;;;;;;;;;4987277;28;20053;-68
2022/05/03 07:31:23;;;;;;;20.67;4.75;;;;;;;;;;5000719;28;20054;-64
2022/05/03 07:33:49;;;;;;;15.70;4.53;;;;;;;;;;5017592;28;20516;-64
2022/05/03 07:36:18;;;;;;;25.38;5.68;;;;;;;;;;5017781;28;20053;-64
2022/05/03 07:38:45;;;;;;;18.20;4.68;;;;;;;;;;5020363;28;20045;-64
2022/05/03 07:41:12;;;;;;;22.33;4.85;;;;;;;;;;5022717;28;20132;-64
2022/05/03 07:43:39;;;;;;;14.80;5.10;;;;;;;;;;5020893;28;20465;-64
2022/05/03 07:46:05;;;;;;;20.10;5.78;;;;;;;;;;5017027;28;20050;-64
2022/05/03 07:48:31;;;;;;;19.83;4.57;;;;;;;;;;5016912;28;20361;-64
2022/05/03 07:50:57;;;;;;;20.85;4.47;;;;;;;;;;5014699;28;20428;-64
2022/05/03 07:53:24;;;;;;;19.63;4.90;;;;;;;;;;5018196;28;20437;-64
2022/05/03 07:55:50;;;;;;;23.55;4.55;;;;;;;;;;5019977;28;20041;-64
2022/05/03 07:58:19;;;;;;;20.50;3.97;;;;;;;;;;5017140;28;20140;-64
2022/05/03 08:00:46;;;;;;;20.17;4.43;;;;;;;;;;4986070;28;20049;-64
2022/05/03 08:03:13;;;;;;;23.30;4.65;;;;;;;;;;5001910;28;20045;-66
2022/05/03 08:05:39;;;;;;;16.02;4.03;;;;;;;;;;5004678;28;20081;-68
2022/05/03 08:08:05;;;;;;;16.92;3.95;;;;;;;;;;4998990;28;20137;-67
2022/05/03 08:10:31;;;;;;;22.92;4.65;;;;;;;;;;5017831;28;20050;-67
2022/05/03 08:12:58;;;;;;;25.17;4.65;;;;;;;;;;5023536;28;20046;-67
2022/05/03 08:15:24;;;;;;;25.80;5.53;;;;;;;;;;5003980;28;20046;-68
2022/05/03 08:17:51;;;;;;;15.68;4.03;;;;;;;;;;5003593;28;20053;-68
2022/05/03 08:20:17;;;;;;;23.60;4.13;;;;;;;;;;5019748;28;20462;-64
2022/05/03 08:22:44;;;;;;;17.65;3.50;;;;;;;;;;5015298;28;20057;-63
2022/05/03 08:25:10;;;;;;;22.55;4.13;;;;;;;;;;5018765;28;20045;-63
2022/05/03 08:27:38;;;;;;;13.88;3.55;;;;;;;;;;5002534;28;20049;-63
2022/05/03 08:30:05;;;;;;;30.40;5.20;;;;;;;;;;4989246;28;20052;-64
2022/05/03 08:32:31;;;;;;;18.67;4.28;;;;;;;;;;5021475;28;20108;-64
2022/05/03 08:34:58;;;;;;;19.70;4.10;;;;;;;;;;5003635;28;20128;-63
2022/05/03 08:42:53;;;;;;;17.30;4.15;;;;;;;;;;5014388;28;20046;-63
2022/05/03 08:45:20;;;;;;;19.98;4.03;;;;;;;;;;5016263;28;20045;-64
2022/05/03 08:47:47;;;;;;;17.23;3.53;;;;;;;;;;5017073;28;20677;-63
2022/05/03 08:50:14;;;;;;;13.73;2.92;;;;;;;;;;5017537;28;20179;-64
2022/05/03 08:52:43;;;;;;;18.13;3.28;;;;;;;;;;5019735;28;20440;-64
2022/05/03 08:55:11;;;;;;;16.85;3.30;;;;;;;;;;5000515;28;20132;-63
2022/05/03 08:57:38;;;;;;;18.33;3.95;;;;;;;;;;5016639;28;20095;-63
2022/05/03 09:00:05;;;;;;;14.38;3.60;;;;;;;;;;5019465;28;21995;-63
2022/05/03 09:02:33;;;;;;;15.82;3.65;;;;;;;;;;5021258;28;20396;-63
2022/05/03 09:05:00;;;;;;;16.02;3.53;;;;;;;;;;5005211;28;20129;-64
2022/05/03 09:07:26;;;;;;;17.23;3.00;;;;;;;;;;5003838;28;20042;-64
2022/05/03 09:09:54;;;;;;;12.85;3.33;;;;;;;;;;5020736;28;20054;-63
2022/05/03 09:12:24;;;;;;;15.50;3.22;;;;;;;;;;5020999;28;20041;-63
2022/05/03 09:14:50;;;;;;;15.48;4.25;;;;;;;;;;5017786;28;20045;-64
2022/05/03 09:17:33;;;;;;;15.05;3.80;;;;;;;;;;5004418;28;20083;-64
2022/05/03 09:19:59;;;;;;;13.98;3.50;;;;;;;;;;5022207;28;20116;-64
2022/05/03 09:25:13;;;;;;;13.90;3.35;;;;;;;;;;5004447;28;20080;-63
2022/05/03 09:27:39;;;;;;;16.42;3.42;;;;;;;;;;5024406;28;20368;-63
2022/05/03 09:30:06;;;;;;;12.15;3.25;;;;;;;;;;5024298;28;20050;-64
2022/05/03 09:32:33;;;;;;;15.10;2.97;;;;;;;;;;5023372;28;20477;-63
2022/05/03 09:35:00;;;;;;;11.63;3.00;;;;;;;;;;5021986;28;20439;-63
2022/05/03 09:37:38;;;;;;;16.45;3.03;;;;;;;;;;5026769;28;20045;-64
2022/05/03 09:40:05;;;;;;;12.80;3.63;;;;;;;;;;5006817;28;20066;-65
2022/05/03 09:42:32;;;;;;;13.38;3.22;;;;;;;;;;5022225;28;20041;-64
2022/05/03 09:45:00;;;;;;;14.57;3.47;;;;;;;;;;5010330;28;20041;-65
2022/05/03 09:47:27;;;;;;;14.80;3.58;;;;;;;;;;5006993;28;20050;-65
2022/05/03 09:49:54;;;;;;;11.70;2.72;;;;;;;;;;5021126;28;20076;-65
2022/05/03 09:52:29;;;;;;;17.27;3.10;;;;;;;;;;5019086;28;20485;-65
2022/05/03 09:54:59;;;;;;;10.45;2.67;;;;;;;;;;4989001;28;20053;-64
2022/05/03 09:57:26;;;;;;;12.18;2.60;;;;;;;;;;5021367;28;20045;-65
2022/05/03 09:59:53;;;;;;;11.45;2.92;;;;;;;;;;5016682;28;20057;-65
2022/05/03 10:02:20;;;;;;;13.23;2.58;;;;;;;;;;5019235;28;20124;-65
2022/05/03 10:04:47;;;;;;;15.13;2.83;;;;;;;;;;5020730;28;20038;-64
2022/05/03 10:07:14;;;;;;;14.75;2.58;;;;;;;;;;5022682;28;20412;-64
2022/05/03 10:09:41;;;;;;;11.90;2.63;;;;;;;;;;5022467;28;20195;-65
2022/05/03 10:12:08;;;;;;;11.57;2.58;;;;;;;;;;5011139;28;20414;-65
2022/05/03 10:14:35;;;;;;;6.68;2.10;;;;;;;;;;5022430;28;20107;-65
2022/05/03 10:22:37;;;;;;;14.00;2.80;;;;;;;;;;5018679;28;20089;-65
2022/05/03 10:25:04;;;;;;;10.43;2.15;;;;;;;;;;5022027;28;20129;-65
2022/05/03 10:27:32;;;;;;;11.80;2.75;;;;;;;;;;5004050;28;20048;-65
2022/05/03 10:30:15;;;;;;;7.63;2.15;;;;;;;;;;5022500;28;20402;-65
2022/05/03 10:32:41;;;;;;;7.85;2.13;;;;;;;;;;5023622;28;20350;-65
2022/05/03 10:35:27;;;;;;;8.23;2.08;;;;;;;;;;5022577;28;20191;-65
2022/05/03 10:37:59;;;;;;;9.52;2.47;;;;;;;;;;5018818;28;20093;-64
2022/05/03 10:40:31;;;;;;;11.95;2.55;;;;;;;;;;5022665;28;20041;-64
2022/05/03 10:43:05;;;;;;;13.25;2.75;;;;;;;;;;5007225;28;20121;-65
2022/05/03 10:45:31;;;;;;;7.53;1.90;;;;;;;;;;5024945;28;20462;-65
2022/05/03 10:47:57;;;;;;;13.18;2.70;;;;;;;;;;5020260;28;20041;-65
2022/05/03 10:50:28;;;;;;;8.25;2.85;;;;;;;;;;5007193;28;20041;-65
2022/05/03 10:52:55;;;;;;;9.60;2.97;;;;;;;;;;5025256;28;20025;-65
2022/05/03 10:55:21;;;;;;;15.05;2.15;;;;;;;;;;5006191;28;20361;-65
2022/05/03 10:58:06;;;;;;;9.25;2.58;;;;;;;;;;5023202;28;20092;-65
2022/05/03 11:00:51;;;;;;;6.90;1.60;;;;;;;;;;5020721;28;20052;-65
2022/05/03 11:03:19;;;;;;;8.80;2.03;;;;;;;;;;5023975;28;20066;-65
2022/05/03 11:05:45;;;;;;;18.08;2.95;;;;;;;;;;5006653;28;20053;-65
2022/05/03 11:08:18;;;;;;;6.25;1.70;;;;;;;;;;5024043;28;20463;-65
2022/05/03 11:10:45;;;;;;;7.23;1.90;;;;;;;;;;5021128;28;20053;-65
2022/05/03 11:13:29;;;;;;;10.02;2.47;;;;;;;;;;5017537;28;20830;-65
2022/05/03 11:16:14;;;;;;;8.82;2.38;;;;;;;;;;5020428;28;20138;-65
2022/05/03 11:18:42;;;;;;;8.95;2.30;;;;;;;;;;5020062;28;20069;-65
2022/05/03 11:21:15;;;;;;;8.95;1.73;;;;;;;;;;5024396;28;20045;-65
2022/05/03 11:23:48;;;;;;;13.88;2.75;;;;;;;;;;5020541;28;20045;-65
2022/05/03 11:26:15;;;;;;;10.82;3.03;;;;;;;;;;5022824;28;20396;-65
2022/05/03 11:28:42;;;;;;;9.20;2.15;;;;;;;;;;5021591;28;20577;-65
2022/05/03 11:31:08;;;;;;;10.07;1.90;;;;;;;;;;5005285;28;20056;-65
2022/05/03 11:33:48;;;;;;;10.00;1.83;;;;;;;;;;5020139;28;20052;-65
2022/05/03 11:36:15;;;;;;;9.77;2.30;;;;;;;;;;5021935;28;20059;-65
2022/05/03 11:38:41;;;;;;;11.02;2.53;;;;;;;;;;5025044;28;20076;-65
2022/05/03 11:41:07;;;;;;;6.60;2.03;;;;;;;;;;5023339;28;20113;-65
2022/05/03 11:43:34;;;;;;;12.48;2.25;;;;;;;;;;5023289;28;20515;-65
2022/05/03 11:46:00;;;;;;;12.40;2.60;;;;;;;;;;4987568;28;20167;-65
2022/05/03 11:48:28;;;;;;;7.38;1.85;;;;;;;;;;5004210;28;20052;-65
2022/05/03 11:56:24;;;;;;;9.32;2.40;;;;;;;;;;5021374;28;20072;-65
2022/05/03 11:58:51;;;;;;;12.82;3.13;;;;;;;;;;5003414;28;20041;-65
2022/05/03 12:01:17;;;;;;;10.73;2.47;;;;;;;;;;5021315;28;20050;-64
2022/05/03 12:03:45;;;;;;;10.45;2.38;;;;;;;;;;4998731;28;20046;-65
2022/05/03 12:06:12;;;;;;;11.52;2.90;;;;;;;;;;5016712;28;20143;-65
2022/05/03 12:08:38;;;;;;;8.43;2.13;;;;;;;;;;5016386;28;20050;-65
2022/05/03 12:11:04;;;;;;;11.30;2.35;;;;;;;;;;5008134;28;20500;-65
2022/05/03 12:13:31;;;;;;;7.93;2.00;;;;;;;;;;5019767;28;20045;-64
2022/05/03 12:15:57;;;;;;;6.00;1.98;;;;;;;;;;5018013;28;20042;-65
2022/05/03 12:18:29;;;;;;;9.35;2.13;;;;;;;;;;5023282;28;20480;-65
2022/05/03 12:21:14;;;;;;;9.98;2.58;;;;;;;;;;5018940;28;20569;-65
2022/05/03 12:23:41;;;;;;;9.23;2.20;;;;;;;;;;5018841;28;20067;-65
2022/05/03 12:26:27;;;;;;;12.10;2.35;;;;;;;;;;5021710;28;20061;-65
2022/05/03 12:28:56;;;;;;;7.60;1.75;;;;;;;;;;5019726;28;20079;-66
2022/05/03 12:31:23;;;;;;;6.95;2.08;;;;;;;;;;4992782;28;20081;-65
2022/05/03 12:33:49;;;;;;;8.77;2.38;;;;;;;;;;4994521;28;20046;-65
2022/05/03 12:36:35;;;;;;;8.55;2.20;;;;;;;;;;4981246;28;20141;-65
2022/05/03 12:39:09;;;;;;;11.85;2.60;;;;;;;;;;4989407;28;20458;-65
2022/05/03 12:41:36;;;;;;;15.63;2.85;;;;;;;;;;4996587;28;20164;-65
2022/05/03 12:44:04;;;;;;;12.82;2.65;;;;;;;;;;4985565;28;20046;-65
2022/05/03 12:46:30;;;;;;;10.80;2.08;;;;;;;;;;4991493;28;20107;-65
2022/05/03 12:48:56;;;;;;;11.15;2.63;;;;;;;;;;4984786;28;20069;-65
2022/05/03 12:51:24;;;;;;;6.57;1.98;;;;;;;;;;4986931;28;20046;-65
2022/05/03 12:53:51;;;;;;;8.98;1.92;;;;;;;;;;4997418;28;20049;-65
2022/05/03 12:59:02;;;;;;;10.52;2.05;;;;;;;;;;4991974;28;20556;-65
2022/05/03 13:01:28;;;;;;;7.95;2.28;;;;;;;;;;4978082;28;20050;-65
2022/05/03 13:03:54;;;;;;;8.52;1.95;;;;;;;;;;4979084;28;20113;-65
2022/05/03 13:06:21;;;;;;;9.10;2.33;;;;;;;;;;4980747;28;20052;-65
2022/05/03 13:08:47;;;;;;;7.75;2.22;;;;;;;;;;4978941;28;20049;-65
2022/05/03 13:11:14;;;;;;;9.02;2.10;;;;;;;;;;4996490;28;20328;-65
2022/05/03 13:13:40;;;;;;;12.07;2.50;;;;;;;;;;4986430;28;20125;-65
2022/05/03 13:16:06;;;;;;;11.82;2.50;;;;;;;;;;4977787;28;20385;-65
2022/05/03 13:18:32;;;;;;;11.57;2.30;;;;;;;;;;4996395;28;20137;-64
2022/05/03 13:20:58;;;;;;;10.82;2.42;;;;;;;;;;4976704;28;20046;-65
2022/05/03 13:23:24;;;;;;;9.00;2.60;;;;;;;;;;4987277;28;20667;-64
2022/05/03 13:25:51;;;;;;;8.50;2.63;;;;;;;;;;4998014;28;20042;-64
2022/05/03 13:28:17;;;;;;;11.43;2.40;;;;;;;;;;5000077;28;20559;-65
2022/05/03 13:30:43;;;;;;;9.05;2.22;;;;;;;;;;4987045;28;20102;-65
2022/05/03 13:33:10;;;;;;;7.78;2.40;;;;;;;;;;4988428;28;20198;-65
2022/05/03 13:41:06;;;;;;;11.52;2.50;;;;;;;;;;4999710;28;20486;-65
2022/05/03 13:43:33;;;;;;;8.07;2.15;;;;;;;;;;4998299;28;20042;-64
2022/05/03 13:45:59;;;;;;;10.50;2.35;;;;;;;;;;4994794;28;20095;-65
2022/05/03 13:48:26;;;;;;;8.60;2.40;;;;;;;;;;4981852;28;20069;-64
2022/05/03 13:50:52;;;;;;;11.77;2.42;;;;;;;;;;4980673;28;20485;-65
2022/05/03 13:53:18;;;;;;;9.63;2.05;;;;;;;;;;4982817;28;20113;-65
2022/05/03 13:55:44;;;;;;;10.35;2.30;;;;;;;;;;4993909;28;20128;-65
2022/05/03 13:58:11;;;;;;;9.90;2.40;;;;;;;;;;4992379;28;20045;-65
2022/05/03 14:00:39;;;;;;;11.10;2.33;;;;;;;;;;4992957;28;20118;-65
2022/05/03 14:03:14;;;;;;;12.40;2.25;;;;;;;;;;4996752;28;20405;-68
2022/05/03 14:05:41;;;;;;;11.30;2.10;;;;;;;;;;4980301;28;20546;-64
2022/05/03 14:08:10;;;;;;;10.57;2.70;;;;;;;;;;4997607;28;20173;-65
2022/05/03 14:10:37;;;;;;;11.05;2.58;;;;;;;;;;4987548;28;20099;-64
2022/05/03 14:13:03;;;;;;;10.13;2.67;;;;;;;;;;4999641;28;20529;-65
2022/05/03 14:15:29;;;;;;;9.48;2.95;;;;;;;;;;4988038;28;20099;-65
2022/05/03 14:17:55;;;;;;;9.57;2.17;;;;;;;;;;5002307;28;20097;-64
2022/05/03 14:20:21;;;;;;;7.95;2.33;;;;;;;;;;4998687;28;20042;-65
2022/05/03 14:22:48;;;;;;;10.23;2.05;;;;;;;;;;5004406;28;20121;-65
2022/05/03 14:25:15;;;;;;;13.57;2.60;;;;;;;;;;5007933;28;20034;-64
2022/05/03 14:27:41;;;;;;;11.15;2.22;;;;;;;;;;4989941;28;20045;-66
2022/05/03 14:30:09;;;;;;;11.73;2.25;;;;;;;;;;4999608;28;20518;-65
2022/05/03 14:32:36;;;;;;;9.30;2.33;;;;;;;;;;4999894;28;20100;-64
2022/05/03 14:35:04;;;;;;;8.02;2.30;;;;;;;;;;4993261;28;20046;-65
2022/05/03 14:37:30;;;;;;;9.52;2.10;;;;;;;;;;5002267;28;20502;-65
2022/05/03 14:39:57;;;;;;;10.80;1.98;;;;;;;;;;5006276;28;20053;-65
2022/05/03 14:42:24;;;;;;;8.57;2.03;;;;;;;;;;5004627;28;20046;-64
2022/05/03 14:44:54;;;;;;;10.68;2.28;;;;;;;;;;5001185;28;20559;-88
2022/05/03 14:47:20;;;;;;;11.20;2.53;;;;;;;;;;4991316;28;20057;-64
2022/05/03 14:49:47;;;;;;;11.50;2.78;;;;;;;;;;4998230;28;20049;-64
2022/05/03 14:52:15;;;;;;;8.63;2.10;;;;;;;;;;4994286;28;20053;-64
2022/05/03 14:54:41;;;;;;;9.57;2.30;;;;;;;;;;4992722;28;20042;-64
2022/05/03 15:02:56;;;;;;;12.73;2.78;;;;;;;;;;5001585;28;20436;-64
2022/05/03 15:05:24;;;;;;;12.07;2.25;;;;;;;;;;4995596;28;20125;-65
2022/05/03 15:07:50;;;;;;;9.98;2.50;;;;;;;;;;5005050;28;20038;-65
2022/05/03 15:10:17;;;;;;;8.63;2.03;;;;;;;;;;4988524;28;20545;-65
2022/05/03 15:12:43;;;;;;;9.70;2.42;;;;;;;;;;4985390;28;20045;-65
2022/05/03 15:15:11;;;;;;;10.60;2.40;;;;;;;;;;5007163;28;20488;-65
2022/05/03 15:17:37;;;;;;;10.75;3.00;;;;;;;;;;5005819;28;20045;-65
2022/05/03 15:20:04;;;;;;;11.05;2.72;;;;;;;;;;5003906;28;20088;-65
2022/05/03 15:25:15;;;;;;;10.60;2.08;;;;;;;;;;5004140;28;20058;-65